Time;durP1;ratioP1;P1;durP2;ratioP2;P2;SDS_P1;SDS_P2;PMS_P1;PMS_P2;Temp;Humidity;BMP_temperature;BMP_pressure;BME280_temperature;BME280_humidity;BME280_pressure;Samples;Min_cycle;Max_cycle;Signal;HPM_P1;HPM_P2
2023/06/18 00:02:32;;;;;;;5.45;3.80;;;;;;;16.82;100.00;100137.06;5572345;32;34476;-67
2023/06/18 00:05:39;;;;;;;5.45;3.80;;;;;;;16.80;100.00;100139.94;5572077;32;33974;-67
2023/06/18 00:08:45;;;;;;;5.57;3.58;;;;;;;16.76;100.00;100145.94;5571997;32;34658;-67
2023/06/18 00:11:51;;;;;;;5.03;3.60;;;;;;;16.75;100.00;100131.72;5572299;32;33856;-66
2023/06/18 00:14:56;;;;;;;5.93;4.00;;;;;;;16.72;100.00;100142.88;5572030;32;34137;-68
2023/06/18 00:18:03;;;;;;;4.87;3.62;;;;;;;16.66;100.00;100138.38;5571957;32;34599;-67
2023/06/18 00:21:11;;;;;;;5.78;3.95;;;;;;;16.70;100.00;100136.09;5571890;32;35124;-67
2023/06/18 00:24:18;;;;;;;5.07;3.65;;;;;;;16.65;100.00;100133.25;5569577;32;33872;-68
2023/06/18 00:27:26;;;;;;;4.75;3.53;;;;;;;16.62;100.00;100126.44;5568613;32;34628;-67
2023/06/18 00:30:34;;;;;;;;;;;;;;;16.62;100.00;100117.56;5568585;32;33755;-67
2023/06/18 00:33:41;;;;;;;5.62;3.70;;;;;;;16.61;100.00;100126.62;5568309;32;33525;-67
2023/06/18 00:36:50;;;;;;;4.47;3.50;;;;;;;16.61;100.00;100116.75;5568010;32;34608;-67
2023/06/18 00:39:55;;;;;;;4.68;3.65;;;;;;;16.68;100.00;100119.41;5567354;32;34553;-67
2023/06/18 00:43:05;;;;;;;5.65;3.30;;;;;;;16.64;100.00;100127.06;5566689;32;33694;-67
2023/06/18 00:46:12;;;;;;;6.47;3.42;;;;;;;16.57;100.00;100133.44;5566998;32;33933;-67
2023/06/18 00:49:19;;;;;;;5.05;3.40;;;;;;;16.55;100.00;100130.97;5566158;32;33943;-67
2023/06/18 00:52:25;;;;;;;5.50;3.35;;;;;;;16.48;100.00;100135.53;5567153;32;34378;-67
2023/06/18 00:55:37;;;;;;;4.90;3.72;;;;;;;16.43;100.00;100130.81;5567712;32;34528;-67
2023/06/18 00:58:47;;;;;;;7.78;3.80;;;;;;;16.35;100.00;100127.56;5567053;32;34892;-67
2023/06/18 01:01:53;;;;;;;;;;;;;;;16.27;100.00;100125.09;5568419;32;33930;-67
2023/06/18 01:05:02;;;;;;;5.68;3.80;;;;;;;16.23;100.00;100126.53;5568051;32;34112;-67
2023/06/18 01:08:12;;;;;;;5.47;3.97;;;;;;;16.21;100.00;100126.78;5568154;32;33807;-67
2023/06/18 01:11:18;;;;;;;8.05;3.78;;;;;;;16.16;100.00;100131.94;5567939;32;33689;-67
2023/06/18 01:14:27;;;;;;;5.45;3.55;;;;;;;16.05;100.00;100135.25;5567980;32;34306;-67
2023/06/18 01:17:34;;;;;;;5.10;3.70;;;;;;;15.98;100.00;100137.94;5567986;32;34527;-67
2023/06/18 01:20:44;;;;;;;5.97;3.67;;;;;;;15.95;100.00;100135.69;5567880;32;33813;-67
2023/06/18 01:24:19;;;;;;;7.95;3.87;;;;;;;15.91;100.00;100137.12;5567932;32;33906;-67
2023/06/18 01:27:27;;;;;;;6.40;4.20;;;;;;;15.89;100.00;100123.13;5567778;32;33809;-67
2023/06/18 01:30:37;;;;;;;5.45;3.70;;;;;;;15.85;100.00;100127.25;5567670;32;33971;-67
2023/06/18 01:33:51;;;;;;;4.57;3.70;;;;;;;15.81;100.00;100128.72;5566745;32;33807;-67
2023/06/18 01:37:24;;;;;;;5.40;4.10;;;;;;;15.72;100.00;100129.94;5566366;32;33918;-67
2023/06/18 01:40:37;;;;;;;6.47;4.28;;;;;;;15.69;100.00;100133.03;5567186;32;33866;-67
2023/06/18 01:43:49;;;;;;;6.12;4.30;;;;;;;15.52;100.00;100137.16;5567669;32;33870;-67
2023/06/18 01:46:58;;;;;;;5.30;4.32;;;;;;;15.46;100.00;100137.94;5567664;32;33741;-67
2023/06/18 01:50:10;;;;;;;9.18;4.00;;;;;;;15.42;100.00;100139.38;5567855;32;33899;-67
2023/06/18 01:53:17;;;;;;;6.18;4.35;;;;;;;15.40;100.00;100144.91;5566704;32;33859;-67
2023/06/18 01:56:30;;;;;;;6.30;4.32;;;;;;;15.45;100.00;100144.31;5567549;32;33862;-67
2023/06/18 01:59:43;;;;;;;4.80;4.05;;;;;;;15.49;100.00;100138.34;5566898;32;33785;-67
2023/06/18 02:02:51;;;;;;;6.40;4.32;;;;;;;15.54;100.00;100148.47;5567430;32;34550;-67
2023/06/18 02:05:59;;;;;;;6.53;4.40;;;;;;;15.52;100.00;100148.69;5567732;32;34301;-68
2023/06/18 02:09:07;;;;;;;6.45;3.92;;;;;;;15.50;100.00;100145.34;5567332;32;33853;-67
2023/06/18 02:12:14;;;;;;;5.22;4.55;;;;;;;15.64;100.00;100148.84;5567286;32;33800;-67
2023/06/18 02:15:22;;;;;;;4.47;3.70;;;;;;;15.66;100.00;100152.16;5567389;32;33902;-67
2023/06/18 02:18:32;;;;;;;5.43;4.00;;;;;;;15.64;100.00;100152.37;5567396;32;34084;-67
2023/06/18 02:21:43;;;;;;;8.73;3.85;;;;;;;15.67;100.00;100156.50;5567375;32;33545;-67
2023/06/18 02:24:51;;;;;;;;;;;;;;;15.65;100.00;100153.19;5567700;32;33818;-67
2023/06/18 02:28:06;;;;;;;5.78;4.15;;;;;;;15.61;100.00;100157.31;5567322;32;34299;-67
2023/06/18 02:31:11;;;;;;;6.10;4.20;;;;;;;15.67;100.00;100156.50;5567218;32;33921;-67
2023/06/18 02:34:19;;;;;;;5.20;4.20;;;;;;;15.75;100.00;100158.13;5567224;32;33845;-67
2023/06/18 02:37:25;;;;;;;5.03;3.90;;;;;;;15.71;100.00;100165.75;5567203;32;33640;-67
2023/06/18 02:40:35;;;;;;;5.03;4.07;;;;;;;15.73;100.00;100158.34;5566967;32;34675;-67
2023/06/18 02:43:44;;;;;;;5.05;3.97;;;;;;;15.68;100.00;100165.34;5566963;32;34898;-67
2023/06/18 02:46:53;;;;;;;8.13;4.00;;;;;;;15.60;100.00;100163.69;5566199;32;33789;-67
2023/06/18 02:50:01;;;;;;;6.80;4.50;;;;;;;15.54;100.00;100165.31;5567205;32;33579;-67
2023/06/18 02:53:08;;;;;;;5.10;4.07;;;;;;;15.44;100.00;100170.22;5566875;32;33803;-66
2023/06/18 02:56:14;;;;;;;5.15;4.32;;;;;;;15.34;100.00;100169.81;5566966;32;33866;-67
2023/06/18 02:59:23;;;;;;;5.40;3.80;;;;;;;15.25;100.00;100175.56;5566936;32;33747;-67
2023/06/18 03:02:30;;;;;;;6.68;4.28;;;;;;;15.42;100.00;100179.47;5566863;32;33814;-67
2023/06/18 03:05:38;;;;;;;5.93;4.40;;;;;;;15.44;100.00;100175.56;5566871;32;33894;-68
2023/06/18 03:08:46;;;;;;;5.30;3.92;;;;;;;15.41;100.00;100175.16;5566628;32;33802;-67
2023/06/18 03:11:52;;;;;;;7.62;3.80;;;;;;;15.59;100.00;100186.09;5566571;32;34542;-67
2023/06/18 03:14:57;;;;;;;6.00;3.80;;;;;;;15.62;100.00;100194.56;5566541;32;34449;-67
2023/06/18 03:18:05;;;;;;;5.03;3.83;;;;;;;15.71;100.00;100189.81;5565785;32;33288;-67
2023/06/18 03:21:12;;;;;;;5.72;4.00;;;;;;;15.79;100.00;100186.91;5565704;32;34537;-67
2023/06/18 03:24:22;;;;;;;5.65;3.95;;;;;;;15.81;100.00;100190.22;5566514;32;33972;-67
2023/06/18 03:27:29;;;;;;;5.62;3.95;;;;;;;15.78;100.00;100187.94;5584765;31;33502;-67
2023/06/18 03:30:38;;;;;;;4.53;3.62;;;;;;;15.87;100.00;100191.25;5585822;31;33807;-67
2023/06/18 03:33:47;;;;;;;3.85;3.37;;;;;;;15.88;100.00;100183.00;5585907;31;33778;-67
2023/06/18 03:36:56;;;;;;;6.03;4.03;;;;;;;15.97;100.00;100197.03;5585750;31;33904;-67
2023/06/18 03:40:04;;;;;;;5.28;4.18;;;;;;;16.06;100.00;100199.28;5585735;31;33840;-68
2023/06/18 03:43:11;;;;;;;5.93;3.85;;;;;;;16.11;100.00;100187.94;5585666;31;33690;-67
2023/06/18 03:46:17;;;;;;;7.78;4.03;;;;;;;16.16;100.00;100193.50;5585862;31;34036;-67
2023/06/18 03:49:26;;;;;;;6.40;4.45;;;;;;;16.14;100.00;100197.41;5585502;31;33812;-67
2023/06/18 03:52:35;;;;;;;4.93;3.97;;;;;;;16.12;100.00;100202.94;5585481;31;34693;-67
2023/06/18 03:55:42;;;;;;;6.53;4.22;;;;;;;16.13;100.00;100209.94;5585526;31;33714;-67
2023/06/18 03:58:51;;;;;;;5.50;3.55;;;;;;;16.13;100.00;100207.28;5586138;31;33795;-67
2023/06/18 04:01:58;;;;;;;6.07;4.10;;;;;;;16.23;100.00;100209.53;5588168;31;33899;-67
2023/06/18 04:05:07;;;;;;;6.05;4.15;;;;;;;16.24;100.00;100213.84;5588214;31;34580;-67
2023/06/18 04:08:15;;;;;;;5.12;3.97;;;;;;;16.29;100.00;100211.38;5588092;31;34793;-67
2023/06/18 04:11:22;;;;;;;7.05;3.90;;;;;;;16.39;100.00;100211.78;5587986;31;33650;-67
2023/06/18 04:14:28;;;;;;;4.72;3.80;;;;;;;16.41;100.00;100209.72;5588086;31;33543;-67
2023/06/18 04:17:39;;;;;;;7.05;4.50;;;;;;;16.44;100.00;100211.97;5587962;31;34051;-67
2023/06/18 04:20:46;;;;;;;8.00;4.20;;;;;;;16.56;100.00;100220.97;5587956;31;34304;-68
2023/06/18 04:23:54;;;;;;;5.18;4.40;;;;;;;16.47;100.00;100215.03;5588116;31;33987;-68
2023/06/18 04:27:01;;;;;;;8.38;4.03;;;;;;;16.60;100.00;100216.91;5588102;31;33790;-67
2023/06/18 04:30:10;;;;;;;4.97;4.10;;;;;;;16.72;100.00;100222.41;5587837;31;33946;-67
2023/06/18 04:33:17;;;;;;;6.22;4.00;;;;;;;16.82;100.00;100220.94;5588304;31;34635;-67
2023/06/18 04:36:26;;;;;;;5.28;3.87;;;;;;;16.99;100.00;100225.81;5587915;31;34342;-68
2023/06/18 04:39:35;;;;;;;6.50;3.92;;;;;;;17.04;100.00;100226.81;5587757;31;34469;-68
2023/06/18 04:42:45;;;;;;;6.53;3.85;;;;;;;17.15;100.00;100225.31;5587886;31;34416;-67
2023/06/18 04:45:53;;;;;;;8.73;3.87;;;;;;;17.27;100.00;100229.81;5587703;31;34468;-68
2023/06/18 04:49:00;;;;;;;5.28;3.92;;;;;;;17.29;100.00;100229.56;5587577;31;34669;-67
2023/06/18 04:52:07;;;;;;;4.47;3.78;;;;;;;17.33;100.00;100236.16;5587561;31;33880;-68
2023/06/18 04:55:17;;;;;;;5.82;3.65;;;;;;;17.33;100.00;100236.16;5587204;31;33725;-67
2023/06/18 04:58:25;;;;;;;6.80;3.90;;;;;;;17.53;100.00;100241.38;5587593;31;33640;-67
2023/06/18 05:01:34;;;;;;;6.15;3.60;;;;;;;17.62;100.00;100242.84;5587951;31;33635;-68
2023/06/18 05:04:43;;;;;;;4.50;3.70;;;;;;;17.63;100.00;100239.91;5586935;31;34520;-67
2023/06/18 05:07:55;;;;;;;7.35;3.50;;;;;;;17.67;100.00;100248.38;5567749;32;33731;-68
2023/06/18 05:11:03;;;;;;;5.22;3.75;;;;;;;17.66;100.00;100246.72;5567415;31;33853;-68
2023/06/18 05:14:11;;;;;;;4.65;3.60;;;;;;;17.76;100.00;100250.56;5567923;32;33994;-68
2023/06/18 05:17:19;;;;;;;5.37;3.67;;;;;;;17.86;100.00;100252.78;5567874;32;34454;-68
2023/06/18 05:20:28;;;;;;;8.27;3.72;;;;;;;17.94;100.00;100255.19;5583047;31;34446;-69
2023/06/18 05:23:35;;;;;;;5.35;3.58;;;;;;;18.08;100.00;100255.88;5587395;31;33962;-68
2023/06/18 05:26:43;;;;;;;4.47;3.80;;;;;;;18.12;100.00;100262.44;5587376;31;34881;-68
2023/06/18 05:29:50;;;;;;;10.45;3.95;;;;;;;18.19;100.00;100271.28;5587349;31;34968;-68
2023/06/18 05:32:57;;;;;;;4.10;3.65;;;;;;;18.27;100.00;100276.38;5580485;31;33687;-68
2023/06/18 05:36:03;;;;;;;5.50;3.55;;;;;;;18.28;100.00;100267.28;5587171;31;33641;-68
2023/06/18 05:39:10;;;;;;;7.60;3.42;;;;;;;18.46;100.00;100279.91;5587138;31;34931;-68
2023/06/18 05:42:18;;;;;;;5.15;3.50;;;;;;;18.65;100.00;100274.37;5586318;31;33785;-68
2023/06/18 05:45:30;;;;;;;4.47;3.72;;;;;;;18.99;100.00;100282.88;5587226;31;33779;-68
2023/06/18 05:48:40;;;;;;;6.37;3.70;;;;;;;19.03;100.00;100281.37;5587029;31;33680;-68
2023/06/18 05:51:47;;;;;;;5.60;3.60;;;;;;;19.16;100.00;100289.31;5586865;31;34625;-68
2023/06/18 05:54:55;;;;;;;5.78;3.83;;;;;;;19.23;100.00;100284.66;5587106;31;34019;-68
2023/06/18 05:58:01;;;;;;;8.88;3.42;;;;;;;19.38;100.00;100287.78;5587497;31;33869;-68
2023/06/18 06:01:07;;;;;;;3.87;3.45;;;;;;;19.44;100.00;100289.59;5587119;31;34959;-68
2023/06/18 06:04:16;;;;;;;6.00;3.10;;;;;;;19.56;98.42;100291.50;5587173;31;33850;-68
2023/06/18 06:07:22;;;;;;;7.37;3.15;;;;;;;19.61;92.30;100292.44;5587054;31;34342;-69
2023/06/18 06:10:34;;;;;;;5.62;3.30;;;;;;;19.71;92.69;100294.59;5586490;31;33557;-68
2023/06/18 06:13:42;;;;;;;6.62;3.33;;;;;;;19.78;87.75;100289.94;5586943;31;33559;-68
2023/06/18 06:16:57;;;;;;;4.65;3.50;;;;;;;19.90;86.53;100296.97;5586911;31;33651;-68
2023/06/18 06:20:06;;;;;;;4.10;3.15;;;;;;;19.97;85.32;100296.91;5587065;31;33877;-69
2023/06/18 06:23:13;;;;;;;6.05;3.50;;;;;;;19.92;84.76;100296.75;5585473;31;34075;-67
2023/06/18 06:26:20;;;;;;;5.93;3.20;;;;;;;20.05;84.25;100293.84;5586146;31;34357;-68
2023/06/18 06:29:28;;;;;;;4.97;3.20;;;;;;;20.09;85.44;100294.22;5586851;31;33900;-68
2023/06/18 06:32:36;;;;;;;8.63;3.12;;;;;;;20.30;82.27;100305.28;5587127;31;33846;-67
2023/06/18 06:35:44;;;;;;;4.15;2.83;;;;;;;20.32;80.10;100299.69;5585845;31;33937;-68
2023/06/18 06:38:50;;;;;;;4.78;2.95;;;;;;;20.63;79.16;100296.62;5586773;31;34047;-67
2023/06/18 06:41:59;;;;;;;5.72;3.20;;;;;;;20.70;75.46;100302.72;5586662;31;33840;-67
2023/06/18 06:45:06;;;;;;;3.95;3.05;;;;;;;20.68;72.74;100307.50;5585725;31;34476;-68
2023/06/18 06:48:16;;;;;;;5.03;3.10;;;;;;;20.71;73.97;100311.63;5586457;31;33791;-68
2023/06/18 06:51:24;;;;;;;3.40;2.83;;;;;;;20.95;74.66;100305.16;5586340;31;33625;-68
2023/06/18 06:54:33;;;;;;;4.18;2.97;;;;;;;21.19;71.90;100308.66;5586325;31;34099;-67
2023/06/18 06:57:41;;;;;;;6.50;3.00;;;;;;;21.39;69.41;100314.47;5586137;31;34028;-68
2023/06/18 07:00:47;;;;;;;5.00;3.50;;;;;;;21.42;68.25;100311.28;5586118;31;34528;-67
2023/06/18 07:03:55;;;;;;;5.35;2.90;;;;;;;21.41;69.60;100304.22;5568759;31;34332;-68
2023/06/18 07:07:03;;;;;;;4.20;3.20;;;;;;;21.81;70.08;100306.06;5566463;32;33756;-67
2023/06/18 07:10:10;;;;;;;4.25;2.45;;;;;;;21.91;66.55;100308.94;5566797;32;33606;-69
2023/06/18 07:13:18;;;;;;;7.18;3.00;;;;;;;21.88;65.17;100304.81;5566329;32;33872;-68
2023/06/18 07:16:25;;;;;;;5.35;2.90;;;;;;;22.02;64.67;100302.69;5566340;32;34040;-68
2023/06/18 07:19:32;;;;;;;5.50;3.00;;;;;;;21.96;66.03;100309.88;5566250;32;33949;-67
2023/06/18 07:22:40;;;;;;;4.05;3.00;;;;;;;22.14;63.70;100308.00;5574499;31;34077;-69
2023/06/18 07:25:48;;;;;;;5.75;3.08;;;;;;;22.19;63.61;100303.50;5585613;31;33880;-67
2023/06/18 07:28:55;;;;;;;7.05;3.10;;;;;;;22.32;62.93;100295.03;5585696;31;33495;-67
2023/06/18 07:32:04;;;;;;;5.50;2.80;;;;;;;22.47;62.22;100298.00;5583015;31;33913;-68
2023/06/18 07:35:11;;;;;;;4.07;2.60;;;;;;;22.75;61.16;100304.38;5585507;31;34347;-67
2023/06/18 07:38:18;;;;;;;2.83;2.40;;;;;;;23.12;56.51;100294.59;5581658;31;33859;-68
2023/06/18 07:41:25;;;;;;;3.42;2.28;;;;;;;23.51;56.24;100291.81;5578846;31;33594;-67
2023/06/18 07:44:34;;;;;;;2.62;2.20;;;;;;;23.94;51.67;100288.16;5585480;31;34181;-67
2023/06/18 07:47:42;;;;;;;5.68;2.33;;;;;;;24.55;49.20;100293.00;5586181;31;33878;-69
2023/06/18 07:50:48;;;;;;;3.03;1.95;;;;;;;24.95;48.50;100294.34;5578946;31;33895;-69
2023/06/18 07:53:55;;;;;;;5.10;2.25;;;;;;;24.79;47.64;100290.69;5587865;31;33813;-69
2023/06/18 07:57:03;;;;;;;2.35;2.00;;;;;;;26.00;45.62;100287.56;5574079;31;34760;-68
2023/06/18 08:00:10;;;;;;;2.95;2.10;;;;;;;26.75;43.99;100280.47;5571387;31;33611;-68
2023/06/18 08:03:18;;;;;;;2.97;1.77;;;;;;;26.77;43.69;100283.72;5583206;31;34587;-68
2023/06/18 08:06:25;;;;;;;5.70;1.95;;;;;;;26.77;42.60;100289.97;5574755;31;34645;-69
2023/06/18 08:09:35;;;;;;;2.47;2.00;;;;;;;27.02;42.83;100286.38;5580738;31;33556;-69
2023/06/18 08:12:42;;;;;;;2.65;1.83;;;;;;;28.50;40.03;100289.78;5570835;31;33889;-69
2023/06/18 08:15:49;;;;;;;2.92;1.70;;;;;;;28.29;38.54;100283.69;5585380;31;34586;-69
2023/06/18 08:18:55;;;;;;;5.78;1.77;;;;;;;28.38;39.02;100286.59;5569685;31;33618;-70
2023/06/18 08:22:04;;;;;;;2.58;2.03;;;;;;;27.88;40.02;100285.94;5586049;31;34521;-70
2023/06/18 08:25:13;;;;;;;2.37;1.50;;;;;;;28.84;38.41;100292.44;5585324;31;33855;-70
2023/06/18 08:28:22;;;;;;;1.60;1.50;;;;;;;28.32;36.08;100290.50;5586834;31;35015;-69
2023/06/18 08:31:29;;;;;;;2.12;1.50;;;;;;;27.72;36.38;100287.13;5586565;31;34014;-69
2023/06/18 08:34:42;;;;;;;3.03;1.90;;;;;;;28.51;35.96;100280.50;5580060;31;34563;-69
2023/06/18 08:37:48;;;;;;;2.30;1.80;;;;;;;30.18;34.82;100279.09;5585243;31;33964;-69
2023/06/18 08:41:05;;;;;;;2.62;1.87;;;;;;;29.15;36.86;100282.75;5577360;31;34429;-69
2023/06/18 08:44:10;;;;;;;2.60;1.67;;;;;;;30.18;35.90;100286.47;5583622;31;33941;-70
2023/06/18 08:47:20;;;;;;;3.60;1.80;;;;;;;30.34;34.66;100276.09;5585490;31;33864;-71
2023/06/18 08:50:27;;;;;;;1.62;1.40;;;;;;;29.97;35.23;100279.72;5586661;31;33710;-69
2023/06/18 08:54:01;;;;;;;2.72;1.70;;;;;;;29.79;34.56;100284.91;5586165;31;33927;-70
2023/06/18 08:57:33;;;;;;;3.90;1.77;;;;;;;29.79;33.61;100278.59;5585178;31;33549;-68
2023/06/18 09:00:40;;;;;;;3.65;1.90;;;;;;;30.85;33.77;100282.25;5580903;31;35066;-69
2023/06/18 09:03:48;;;;;;;3.15;1.70;;;;;;;31.51;32.21;100280.87;5586735;31;33767;-70
2023/06/18 09:06:56;;;;;;;3.03;1.70;;;;;;;31.88;31.04;100283.31;5586563;31;35021;-69
2023/06/18 09:10:03;;;;;;;3.90;1.77;;;;;;;30.24;33.63;100279.81;5582348;31;34206;-70
2023/06/18 09:13:10;;;;;;;2.35;1.60;;;;;;;31.25;31.67;100280.63;5566876;32;33762;-70
2023/06/18 09:16:18;;;;;;;4.37;2.15;;;;;;;31.32;31.41;100283.75;5567130;32;34911;-69
2023/06/18 09:19:25;;;;;;;4.47;1.83;;;;;;;31.54;31.37;100279.44;5566973;32;34236;-70
2023/06/18 09:22:47;;;;;;;3.70;2.10;;;;;;;30.81;33.10;100275.75;5566694;32;34249;-69
2023/06/18 09:25:55;;;;;;;2.75;1.92;;;;;;;32.03;31.23;100275.81;5566888;32;34578;-69
2023/06/18 09:29:05;;;;;;;2.45;1.90;;;;;;;31.91;30.35;100271.69;5567183;32;34006;-70
2023/06/18 09:32:13;;;;;;;5.62;2.67;;;;;;;32.01;30.41;100275.31;5566891;32;34807;-70
2023/06/18 09:35:19;;;;;;;3.92;2.12;;;;;;;33.44;28.90;100279.38;5566029;32;34335;-70
2023/06/18 09:38:53;;;;;;;2.28;2.08;;;;;;;34.46;26.41;100275.75;5567185;32;34062;-70
2023/06/18 09:42:06;;;;;;;5.10;2.92;;;;;;;34.09;27.63;100278.38;5565932;31;33643;-70
2023/06/18 09:45:14;;;;;;;3.37;2.10;;;;;;;34.24;27.66;100275.16;5567081;32;33896;-70
2023/06/18 09:48:20;;;;;;;2.85;2.05;;;;;;;31.10;30.12;100278.22;5567082;32;33680;-69
2023/06/18 09:51:27;;;;;;;2.00;1.80;;;;;;;31.75;29.88;100273.22;5567068;31;34294;-70
2023/06/18 09:54:41;;;;;;;3.65;2.37;;;;;;;33.05;27.87;100264.56;5567376;32;33815;-70
2023/06/18 09:57:49;;;;;;;4.45;2.17;;;;;;;33.88;27.97;100270.03;5567013;32;33663;-70
2023/06/18 10:01:04;;;;;;;2.50;2.30;;;;;;;33.34;27.33;100268.69;5566973;32;33641;-69
2023/06/18 10:04:08;;;;;;;2.78;2.25;;;;;;;34.47;27.04;100269.06;5566766;32;33743;-70
2023/06/18 10:07:16;;;;;;;2.60;2.30;;;;;;;34.31;27.33;100261.69;5567104;32;33882;-69
2023/06/18 10:10:22;;;;;;;;;;;;;;;33.47;28.16;100274.03;5580374;31;34809;-70
2023/06/18 10:13:29;;;;;;;4.37;2.55;;;;;;;34.29;26.76;100269.47;5586598;31;34572;-69
2023/06/18 10:16:41;;;;;;;3.00;2.47;;;;;;;33.48;27.12;100267.41;5579202;31;33669;-70
2023/06/18 10:20:13;;;;;;;6.20;2.30;;;;;;;33.99;28.13;100269.34;5582282;31;34579;-69
2023/06/18 10:23:23;;;;;;;4.82;2.50;;;;;;;35.37;25.19;100270.78;5581842;31;34042;-68
2023/06/18 10:26:30;;;;;;;3.10;2.03;;;;;;;34.69;25.94;100268.06;5585855;31;33832;-69
2023/06/18 10:29:39;;;;;;;4.82;2.40;;;;;;;34.56;26.44;100269.06;5584476;31;33862;-70
2023/06/18 10:32:44;;;;;;;3.60;2.70;;;;;;;32.72;28.41;100260.59;5580240;31;33874;-71
2023/06/18 10:35:50;;;;;;;5.50;2.40;;;;;;;34.68;26.57;100265.62;5576813;31;34758;-69
2023/06/18 10:38:57;;;;;;;3.70;2.30;;;;;;;35.54;24.94;100271.44;5575533;31;34518;-68
2023/06/18 10:42:16;;;;;;;6.45;2.45;;;;;;;34.21;25.63;100262.84;5574962;31;33876;-68
2023/06/18 10:45:24;;;;;;;;;;;;;;;32.83;27.54;100272.88;5577965;31;33969;-69
2023/06/18 10:48:31;;;;;;;4.62;2.87;;;;;;;34.34;26.45;100267.34;5575221;31;34767;-70
2023/06/18 10:51:40;;;;;;;3.08;2.50;;;;;;;33.42;26.98;100262.38;5575630;31;34473;-70
2023/06/18 10:54:55;;;;;;;3.83;2.70;;;;;;;33.23;26.73;100256.38;5566855;32;34366;-68
2023/06/18 10:58:04;;;;;;;5.60;2.75;;;;;;;32.53;27.10;100258.06;5566852;32;33580;-69
2023/06/18 11:01:26;;;;;;;8.95;2.75;;;;;;;33.53;26.43;100253.50;5566543;32;33895;-70
2023/06/18 11:04:34;;;;;;;5.72;2.75;;;;;;;32.30;27.85;100256.47;5566718;32;33898;-69
2023/06/18 11:07:40;;;;;;;6.43;2.72;;;;;;;33.07;27.06;100254.03;5565854;32;34701;-70
2023/06/18 11:10:48;;;;;;;6.22;2.85;;;;;;;35.35;24.30;100259.25;5566089;32;33942;-70
2023/06/18 11:13:55;;;;;;;5.45;3.10;;;;;;;34.49;24.83;100260.50;5585838;31;33989;-69
2023/06/18 11:17:12;;;;;;;3.58;2.58;;;;;;;35.50;24.33;100266.94;5584216;31;33800;-70
2023/06/18 11:20:22;;;;;;;6.62;2.90;;;;;;;34.84;25.66;100248.22;5584789;31;33841;-69
2023/06/18 11:23:29;;;;;;;6.32;2.95;;;;;;;37.03;23.36;100251.00;5575498;31;34448;-70
2023/06/18 11:26:34;;;;;;;5.65;2.60;;;;;;;37.10;23.11;100254.81;5574222;31;34198;-70
2023/06/18 11:29:41;;;;;;;3.60;2.97;;;;;;;37.79;22.49;100242.66;5575617;31;33989;-72
2023/06/18 11:32:48;;;;;;;8.30;3.08;;;;;;;36.12;23.52;100240.06;5574174;31;33929;-69
2023/06/18 11:36:05;;;;;;;4.05;2.87;;;;;;;35.10;25.52;100252.78;5566355;31;33794;-70
2023/06/18 11:39:13;;;;;;;4.55;2.62;;;;;;;37.81;22.75;100243.87;5582676;31;34085;-69
2023/06/18 11:42:19;;;;;;;;;;;;;;;34.36;26.03;100239.47;5585756;31;34091;-67
2023/06/18 11:45:25;;;;;;;4.82;2.80;;;;;;;33.19;27.28;100237.78;5568667;31;34847;-68
2023/06/18 11:48:34;;;;;;;3.65;2.90;;;;;;;34.54;26.19;100235.50;5564670;32;34748;-70
2023/06/18 11:51:42;;;;;;;4.30;3.00;;;;;;;37.26;23.74;100230.81;5579868;31;34002;-70
2023/06/18 11:54:50;;;;;;;4.85;2.95;;;;;;;36.14;24.26;100232.28;5584719;31;33811;-70
2023/06/18 11:58:00;;;;;;;6.32;2.87;;;;;;;36.37;24.15;100231.84;5585013;31;33909;-69
2023/06/18 12:01:05;;;;;;;3.40;2.72;;;;;;;36.70;24.23;100221.53;5585640;31;34486;-70
2023/06/18 12:04:12;;;;;;;5.18;3.10;;;;;;;37.29;23.79;100227.34;5580862;31;35189;-70
2023/06/18 12:07:22;;;;;;;3.67;2.58;;;;;;;38.00;22.83;100226.66;5581417;31;33318;-72
2023/06/18 12:10:28;;;;;;;6.95;2.95;;;;;;;35.72;24.79;100219.72;5583049;31;34059;-70
2023/06/18 12:13:40;;;;;;;3.53;2.70;;;;;;;37.38;23.29;100216.13;5584993;31;33964;-69
2023/06/18 12:16:52;;;;;;;3.60;2.70;;;;;;;34.91;25.64;100222.06;5565956;31;33958;-68
2023/06/18 12:20:12;;;;;;;5.65;2.80;;;;;;;35.11;25.68;100216.56;5570018;31;33929;-70
2023/06/18 12:23:22;;;;;;;3.05;2.72;;;;;;;37.21;23.14;100208.12;5578537;31;33506;-70
2023/06/18 12:26:28;;;;;;;5.75;3.05;;;;;;;37.32;24.04;100204.53;5585619;31;33792;-68
2023/06/18 12:29:39;;;;;;;3.50;2.75;;;;;;;35.59;25.64;100202.25;5584776;31;33631;-70
2023/06/18 12:33:01;;;;;;;5.57;3.15;;;;;;;36.81;24.25;100196.97;5573557;31;34560;-69
2023/06/18 12:36:06;;;;;;;9.48;3.25;;;;;;;38.38;22.33;100205.84;5579219;31;33908;-69
2023/06/18 12:39:13;;;;;;;3.42;2.90;;;;;;;36.13;24.06;100196.72;5581906;31;34111;-70
2023/06/18 12:42:21;;;;;;;5.62;3.17;;;;;;;36.28;23.91;100198.81;5571209;31;34875;-68
2023/06/18 12:45:32;;;;;;;5.93;3.22;;;;;;;33.95;25.30;100188.56;5582424;31;33561;-67
2023/06/18 12:48:40;;;;;;;5.80;2.83;;;;;;;35.27;24.83;100197.50;5579687;31;33753;-68
2023/06/18 12:51:49;;;;;;;4.47;3.17;;;;;;;33.84;26.70;100194.75;5584330;31;34006;-68
2023/06/18 12:54:59;;;;;;;12.00;3.25;;;;;;;32.99;27.69;100188.06;5580277;31;34323;-69
2023/06/18 12:58:21;;;;;;;7.80;3.28;;;;;;;32.90;28.31;100176.25;5583167;31;34423;-68
2023/06/18 13:01:28;;;;;;;6.68;3.28;;;;;;;34.92;26.04;100188.66;5572324;31;34646;-68
2023/06/18 13:04:38;;;;;;;4.12;3.47;;;;;;;33.42;27.29;100193.63;5581518;31;33890;-70
2023/06/18 13:07:50;;;;;;;;;;;;;;;34.73;24.89;100191.84;5577734;31;34193;-69
2023/06/18 13:10:59;;;;;;;4.05;3.00;;;;;;;35.48;22.90;100178.19;5578801;31;34202;-69
2023/06/18 13:14:05;;;;;;;;;;;;;;;34.64;24.84;100179.22;5582905;31;34010;-68
2023/06/18 13:17:22;;;;;;;5.57;3.12;;;;;;;34.67;25.14;100181.31;5579993;31;34408;-69
2023/06/18 13:20:28;;;;;;;3.85;3.28;;;;;;;32.30;26.89;100172.19;5587444;31;33632;-69
2023/06/18 13:23:35;;;;;;;5.25;2.97;;;;;;;29.11;31.79;100172.44;5587706;31;34148;-68
2023/06/18 13:26:43;;;;;;;4.05;3.20;;;;;;;30.56;29.43;100174.94;5587070;31;34642;-68
2023/06/18 13:29:50;;;;;;;4.47;3.53;;;;;;;31.00;29.05;100174.28;5587089;31;34907;-69
2023/06/18 13:32:57;;;;;;;7.93;3.55;;;;;;;34.54;25.01;100177.66;5585631;31;34463;-68
2023/06/18 13:36:06;;;;;;;;;;;;;;;34.73;24.43;100180.00;5583958;31;34338;-69
2023/06/18 13:39:12;;;;;;;5.05;3.05;;;;;;;35.22;24.86;100172.87;5585318;31;34135;-68
2023/06/18 13:42:18;;;;;;;4.78;3.45;;;;;;;35.95;22.48;100181.47;5587066;31;33952;-70
2023/06/18 13:45:24;;;;;;;4.25;3.20;;;;;;;38.49;20.77;100180.00;5573071;31;34727;-68
2023/06/18 13:48:32;;;;;;;6.72;3.42;;;;;;;36.51;21.92;100172.31;5585768;31;33821;-68
2023/06/18 13:51:39;;;;;;;3.87;3.00;;;;;;;33.77;24.79;100166.91;5584023;31;33858;-68
2023/06/18 13:54:47;;;;;;;7.07;3.00;;;;;;;34.19;24.44;100165.19;5586461;31;33563;-70
2023/06/18 13:57:55;;;;;;;7.95;3.25;;;;;;;36.85;21.96;100167.47;5570592;31;35172;-70
2023/06/18 14:01:01;;;;;;;4.75;3.22;;;;;;;37.48;22.19;100170.53;5586257;31;33332;-70
2023/06/18 14:04:11;;;;;;;4.07;2.75;;;;;;;37.65;21.73;100165.53;5586452;31;34466;-70
2023/06/18 14:07:17;;;;;;;5.12;3.20;;;;;;;39.74;20.21;100164.09;5586022;31;32461;-69
2023/06/18 14:10:23;;;;;;;5.68;3.03;;;;;;;39.23;19.03;100155.94;5586067;31;33854;-69
2023/06/18 14:13:29;;;;;;;4.82;3.22;;;;;;;40.12;18.55;100163.22;5586068;31;32283;-70
2023/06/18 14:16:35;;;;;;;4.40;3.17;;;;;;;39.46;18.88;100169.91;5586509;31;34037;-69
2023/06/18 14:19:42;;;;;;;3.20;2.78;;;;;;;39.61;18.73;100165.41;5585133;31;33965;-69
2023/06/18 14:22:49;;;;;;;6.50;3.35;;;;;;;38.91;19.74;100169.16;5584641;31;35489;-70
2023/06/18 14:25:56;;;;;;;6.45;3.12;;;;;;;36.91;21.28;100166.91;5575367;31;34304;-69
2023/06/18 14:29:03;;;;;;;3.70;3.03;;;;;;;35.12;23.58;100164.97;5576439;31;32132;-70
2023/06/18 14:32:08;;;;;;;8.05;3.28;;;;;;;34.13;25.04;100159.00;5584791;31;33764;-70
2023/06/18 14:35:16;;;;;;;;;;;;;;;31.97;26.89;100148.91;5582903;31;33731;-67
2023/06/18 14:38:21;;;;;;;5.47;3.25;;;;;;;34.24;23.60;100157.53;5586076;31;34625;-69